sensor_id;sensor_type;location;lat;lon;timestamp;temperature;humidity
17489;DHT22;8861;52.644;4.734;2023-04-24T07:52:02;9.10;99.90
17489;DHT22;8861;52.644;4.734;2023-04-24T07:54:29;9.10;99.90
17489;DHT22;8861;52.644;4.734;2023-04-24T07:56:56;9.20;99.90
17489;DHT22;8861;52.644;4.734;2023-04-24T07:59:23;9.20;99.90
17489;DHT22;8861;52.644;4.734;2023-04-24T08:01:50;9.30;99.90
17489;DHT22;8861;52.644;4.734;2023-04-24T08:04:17;9.50;99.90
17489;DHT22;8861;52.644;4.734;2023-04-24T08:06:44;9.60;99.90
17489;DHT22;8861;52.644;4.734;2023-04-24T08:09:12;9.70;99.90
17489;DHT22;8861;52.644;4.734;2023-04-24T08:11:39;9.80;99.90
17489;DHT22;8861;52.644;4.734;2023-04-24T08:14:06;9.90;99.90
17489;DHT22;8861;52.644;4.734;2023-04-24T08:16:33;9.90;99.90
17489;DHT22;8861;52.644;4.734;2023-04-24T08:19:00;10.00;99.90
17489;DHT22;8861;52.644;4.734;2023-04-24T08:21:27;10.10;99.90
17489;DHT22;8861;52.644;4.734;2023-04-24T08:23:54;10.10;99.90
17489;DHT22;8861;52.644;4.734;2023-04-24T08:26:22;10.10;99.90
17489;DHT22;8861;52.644;4.734;2023-04-24T08:28:49;10.10;99.90
17489;DHT22;8861;52.644;4.734;2023-04-24T08:31:16;10.20;99.90
17489;DHT22;8861;52.644;4.734;2023-04-24T08:33:43;10.30;99.90
17489;DHT22;8861;52.644;4.734;2023-04-24T08:36:11;10.40;99.90
17489;DHT22;8861;52.644;4.734;2023-04-24T08:38:38;10.40;99.90
17489;DHT22;8861;52.644;4.734;2023-04-24T08:41:05;10.50;99.90
17489;DHT22;8861;52.644;4.734;2023-04-24T08:43:36;10.60;99.90
17489;DHT22;8861;52.644;4.734;2023-04-24T08:46:04;10.60;99.90
17489;DHT22;8861;52.644;4.734;2023-04-24T08:48:31;10.60;99.90
17489;DHT22;8861;52.644;4.734;2023-04-24T08:50:59;10.40;99.90
17489;DHT22;8861;52.644;4.734;2023-04-24T08:53:27;10.20;99.90
17489;DHT22;8861;52.644;4.734;2023-04-24T08:55:55;10.10;99.90
17489;DHT22;8861;52.644;4.734;2023-04-24T08:58:22;10.00;99.90
17489;DHT22;8861;52.644;4.734;2023-04-24T09:00:50;9.90;99.90
17489;DHT22;8861;52.644;4.734;2023-04-24T09:03:18;10.00;99.90
17489;DHT22;8861;52.644;4.734;2023-04-24T09:05:47;10.00;99.90
17489;DHT22;8861;52.644;4.734;2023-04-24T09:08:18;10.10;99.90
17489;DHT22;8861;52.644;4.734;2023-04-24T09:10:45;10.10;99.90
17489;DHT22;8861;52.644;4.734;2023-04-24T09:13:15;10.00;99.90
17489;DHT22;8861;52.644;4.734;2023-04-24T09:15:43;10.00;99.90
17489;DHT22;8861;52.644;4.734;2023-04-24T09:18:11;10.00;99.90
17489;DHT22;8861;52.644;4.734;2023-04-24T09:21:00;10.10;99.90
17489;DHT22;8861;52.644;4.734;2023-04-24T09:23:28;10.20;99.90
17489;DHT22;8861;52.644;4.734;2023-04-24T09:25:56;10.40;99.90
17489;DHT22;8861;52.644;4.734;2023-04-24T09:28:31;10.60;99.90
17489;DHT22;8861;52.644;4.734;2023-04-24T09:31:03;10.80;99.90
17489;DHT22;8861;52.644;4.734;2023-04-24T09:33:32;11.10;99.90
17489;DHT22;8861;52.644;4.734;2023-04-24T09:35:59;11.20;99.90
17489;DHT22;8861;52.644;4.734;2023-04-24T09:38:34;11.20;99.90
17489;DHT22;8861;52.644;4.734;2023-04-24T09:41:01;11.00;99.90
17489;DHT22;8861;52.644;4.734;2023-04-24T09:43:29;10.90;99.90
17489;DHT22;8861;52.644;4.734;2023-04-24T09:45:57;10.80;99.90
17489;DHT22;8861;52.644;4.734;2023-04-24T09:48:33;10.60;99.90
17489;DHT22;8861;52.644;4.734;2023-04-24T09:51:00;10.50;99.90
17489;DHT22;8861;52.644;4.734;2023-04-24T09:53:30;10.50;99.90
17489;DHT22;8861;52.644;4.734;2023-04-24T09:56:02;10.60;99.90
17489;DHT22;8861;52.644;4.734;2023-04-24T09:58:29;10.60;99.90
17489;DHT22;8861;52.644;4.734;2023-04-24T10:00:56;10.70;99.90
17489;DHT22;8861;52.644;4.734;2023-04-24T10:03:29;10.90;99.90
17489;DHT22;8861;52.644;4.734;2023-04-24T10:06:00;11.10;99.90
17489;DHT22;8861;52.644;4.734;2023-04-24T10:08:33;11.20;99.90
17489;DHT22;8861;52.644;4.734;2023-04-24T10:11:00;11.30;99.90
17489;DHT22;8861;52.644;4.734;2023-04-24T10:13:28;11.60;99.90
17489;DHT22;8861;52.644;4.734;2023-04-24T10:15:56;11.70;99.90
17489;DHT22;8861;52.644;4.734;2023-04-24T10:18:25;11.80;99.90
17489;DHT22;8861;52.644;4.734;2023-04-24T10:20:53;11.80;99.90
17489;DHT22;8861;52.644;4.734;2023-04-24T10:23:24;11.90;99.90
17489;DHT22;8861;52.644;4.734;2023-04-24T10:25:52;12.10;99.90
17489;DHT22;8861;52.644;4.734;2023-04-24T10:28:20;12.10;99.90
17489;DHT22;8861;52.644;4.734;2023-04-24T10:30:48;12.20;99.90
17489;DHT22;8861;52.644;4.734;2023-04-24T10:33:16;12.10;99.90
17489;DHT22;8861;52.644;4.734;2023-04-24T10:35:45;11.90;99.90
17489;DHT22;8861;52.644;4.734;2023-04-24T10:38:16;11.80;99.90
17489;DHT22;8861;52.644;4.734;2023-04-24T10:40:46;11.70;99.90
17489;DHT22;8861;52.644;4.734;2023-04-24T10:43:17;11.90;99.90
17489;DHT22;8861;52.644;4.734;2023-04-24T10:46:01;12.10;99.90
17489;DHT22;8861;52.644;4.734;2023-04-24T10:48:28;12.00;99.90
17489;DHT22;8861;52.644;4.734;2023-04-24T10:50:55;12.00;99.90
17489;DHT22;8861;52.644;4.734;2023-04-24T10:53:23;11.70;99.90
17489;DHT22;8861;52.644;4.734;2023-04-24T10:55:59;11.40;99.90
17489;DHT22;8861;52.644;4.734;2023-04-24T10:58:36;11.00;99.90
17489;DHT22;8861;52.644;4.734;2023-04-24T11:01:04;10.80;99.90
17489;DHT22;8861;52.644;4.734;2023-04-24T11:03:32;10.80;99.90
17489;DHT22;8861;52.644;4.734;2023-04-24T11:06:01;10.90;99.90
17489;DHT22;8861;52.644;4.734;2023-04-24T11:08:37;11.00;99.90
17489;DHT22;8861;52.644;4.734;2023-04-24T11:11:10;11.10;99.90
17489;DHT22;8861;52.644;4.734;2023-04-24T11:14:03;11.10;99.90
17489;DHT22;8861;52.644;4.734;2023-04-24T11:16:35;11.30;99.90
17489;DHT22;8861;52.644;4.734;2023-04-24T11:19:06;11.60;99.90
17489;DHT22;8861;52.644;4.734;2023-04-24T11:21:40;11.70;99.90
17489;DHT22;8861;52.644;4.734;2023-04-24T11:24:31;11.60;99.90
17489;DHT22;8861;52.644;4.734;2023-04-24T11:27:05;11.20;99.90
17489;DHT22;8861;52.644;4.734;2023-04-24T11:29:42;11.20;99.90
17489;DHT22;8861;52.644;4.734;2023-04-24T11:32:17;11.40;99.90
17489;DHT22;8861;52.644;4.734;2023-04-24T11:34:46;11.60;99.90
17489;DHT22;8861;52.644;4.734;2023-04-24T11:37:14;11.90;99.90
17489;DHT22;8861;52.644;4.734;2023-04-24T11:39:41;12.30;99.90
17489;DHT22;8861;52.644;4.734;2023-04-24T11:42:09;12.70;99.90
17489;DHT22;8861;52.644;4.734;2023-04-24T11:44:36;12.80;99.90
17489;DHT22;8861;52.644;4.734;2023-04-24T11:47:04;12.90;99.90
17489;DHT22;8861;52.644;4.734;2023-04-24T11:49:31;13.00;99.90
17489;DHT22;8861;52.644;4.734;2023-04-24T11:51:59;13.00;99.90
17489;DHT22;8861;52.644;4.734;2023-04-24T11:54:26;12.70;99.90
17489;DHT22;8861;52.644;4.734;2023-04-24T11:56:53;12.10;99.90
17489;DHT22;8861;52.644;4.734;2023-04-24T11:59:22;11.70;99.90
17489;DHT22;8861;52.644;4.734;2023-04-24T12:01:50;11.50;99.90
17489;DHT22;8861;52.644;4.734;2023-04-24T12:04:17;11.60;99.90
17489;DHT22;8861;52.644;4.734;2023-04-24T12:07:00;11.60;99.90
17489;DHT22;8861;52.644;4.734;2023-04-24T12:09:40;11.80;99.90
17489;DHT22;8861;52.644;4.734;2023-04-24T12:12:08;12.00;99.90
17489;DHT22;8861;52.644;4.734;2023-04-24T12:14:44;12.20;99.90
17489;DHT22;8861;52.644;4.734;2023-04-24T12:17:11;12.40;99.90
17489;DHT22;8861;52.644;4.734;2023-04-24T12:19:44;12.50;99.90
17489;DHT22;8861;52.644;4.734;2023-04-24T12:22:11;12.70;99.90
17489;DHT22;8861;52.644;4.734;2023-04-24T12:24:56;12.70;99.90
17489;DHT22;8861;52.644;4.734;2023-04-24T12:27:24;12.80;99.90
17489;DHT22;8861;52.644;4.734;2023-04-24T12:29:53;12.80;99.90
17489;DHT22;8861;52.644;4.734;2023-04-24T12:32:21;12.80;99.90
17489;DHT22;8861;52.644;4.734;2023-04-24T12:34:49;12.60;99.90
17489;DHT22;8861;52.644;4.734;2023-04-24T12:37:16;12.60;99.90
17489;DHT22;8861;52.644;4.734;2023-04-24T12:39:58;12.30;99.90
17489;DHT22;8861;52.644;4.734;2023-04-24T12:42:26;12.10;99.90
17489;DHT22;8861;52.644;4.734;2023-04-24T12:44:58;12.00;99.90
17489;DHT22;8861;52.644;4.734;2023-04-24T12:47:26;12.10;99.90
17489;DHT22;8861;52.644;4.734;2023-04-24T12:49:53;12.30;99.90
17489;DHT22;8861;52.644;4.734;2023-04-24T12:52:21;12.50;99.90
17489;DHT22;8861;52.644;4.734;2023-04-24T12:54:49;12.60;99.90
17489;DHT22;8861;52.644;4.734;2023-04-24T12:57:16;12.70;99.90
17489;DHT22;8861;52.644;4.734;2023-04-24T12:59:43;12.70;99.90
17489;DHT22;8861;52.644;4.734;2023-04-24T13:02:11;12.60;99.90
17489;DHT22;8861;52.644;4.734;2023-04-24T13:04:39;12.60;99.90
17489;DHT22;8861;52.644;4.734;2023-04-24T13:07:06;12.50;99.90
17489;DHT22;8861;52.644;4.734;2023-04-24T13:09:34;12.50;99.90
17489;DHT22;8861;52.644;4.734;2023-04-24T13:12:02;12.50;99.90
17489;DHT22;8861;52.644;4.734;2023-04-24T13:14:31;12.50;99.90
17489;DHT22;8861;52.644;4.734;2023-04-24T13:16:57;12.50;99.90
17489;DHT22;8861;52.644;4.734;2023-04-24T13:19:26;12.50;99.90
17489;DHT22;8861;52.644;4.734;2023-04-24T13:21:54;12.50;99.90
17489;DHT22;8861;52.644;4.734;2023-04-24T13:24:22;12.60;99.90
17489;DHT22;8861;52.644;4.734;2023-04-24T13:26:50;12.80;99.90
17489;DHT22;8861;52.644;4.734;2023-04-24T13:29:18;12.90;99.90
17489;DHT22;8861;52.644;4.734;2023-04-24T13:31:46;13.00;99.90
17489;DHT22;8861;52.644;4.734;2023-04-24T13:34:13;13.10;99.90
17489;DHT22;8861;52.644;4.734;2023-04-24T13:36:41;13.30;99.90
17489;DHT22;8861;52.644;4.734;2023-04-24T13:39:08;13.50;99.90
17489;DHT22;8861;52.644;4.734;2023-04-24T13:41:36;13.60;99.90
17489;DHT22;8861;52.644;4.734;2023-04-24T13:44:03;13.40;99.90
17489;DHT22;8861;52.644;4.734;2023-04-24T13:46:30;13.30;99.90
17489;DHT22;8861;52.644;4.734;2023-04-24T13:48:58;13.20;99.90
17489;DHT22;8861;52.644;4.734;2023-04-24T13:51:26;13.10;99.90
17489;DHT22;8861;52.644;4.734;2023-04-24T13:53:54;13.10;99.90
17489;DHT22;8861;52.644;4.734;2023-04-24T13:56:22;13.20;99.90
17489;DHT22;8861;52.644;4.734;2023-04-24T13:58:49;13.20;99.90
17489;DHT22;8861;52.644;4.734;2023-04-24T14:01:16;13.20;99.90
17489;DHT22;8861;52.644;4.734;2023-04-24T14:03:43;13.30;99.90
17489;DHT22;8861;52.644;4.734;2023-04-24T14:06:10;13.10;99.90
17489;DHT22;8861;52.644;4.734;2023-04-24T14:08:36;12.90;99.90
17489;DHT22;8861;52.644;4.734;2023-04-24T14:11:05;13.10;99.90
17489;DHT22;8861;52.644;4.734;2023-04-24T14:13:32;13.30;99.90
17489;DHT22;8861;52.644;4.734;2023-04-24T14:15:59;13.30;99.90
17489;DHT22;8861;52.644;4.734;2023-04-24T14:18:26;13.50;99.90
17489;DHT22;8861;52.644;4.734;2023-04-24T14:20:53;13.80;99.90
17489;DHT22;8861;52.644;4.734;2023-04-24T14:23:20;14.10;99.90
17489;DHT22;8861;52.644;4.734;2023-04-24T14:25:47;14.30;99.90
17489;DHT22;8861;52.644;4.734;2023-04-24T14:28:18;14.60;99.90
17489;DHT22;8861;52.644;4.734;2023-04-24T14:30:46;14.90;99.90
17489;DHT22;8861;52.644;4.734;2023-04-24T14:33:13;15.30;99.90
17489;DHT22;8861;52.644;4.734;2023-04-24T14:35:41;15.40;99.90
17489;DHT22;8861;52.644;4.734;2023-04-24T14:38:08;15.40;99.90
17489;DHT22;8861;52.644;4.734;2023-04-24T14:40:35;15.10;99.90
17489;DHT22;8861;52.644;4.734;2023-04-24T14:43:02;14.80;99.90
17489;DHT22;8861;52.644;4.734;2023-04-24T14:45:31;15.20;99.90
17489;DHT22;8861;52.644;4.734;2023-04-24T14:47:58;15.70;99.90
17489;DHT22;8861;52.644;4.734;2023-04-24T14:50:25;15.70;99.90
17489;DHT22;8861;52.644;4.734;2023-04-24T14:52:53;16.10;99.90
17489;DHT22;8861;52.644;4.734;2023-04-24T14:55:22;16.20;99.90
17489;DHT22;8861;52.644;4.734;2023-04-24T14:57:49;15.80;99.90
17489;DHT22;8861;52.644;4.734;2023-04-24T15:00:17;15.20;99.90
17489;DHT22;8861;52.644;4.734;2023-04-24T15:02:47;14.50;99.90
17489;DHT22;8861;52.644;4.734;2023-04-24T15:05:14;14.20;99.90
17489;DHT22;8861;52.644;4.734;2023-04-24T15:07:41;14.00;99.90
17489;DHT22;8861;52.644;4.734;2023-04-24T15:10:09;13.60;99.90
17489;DHT22;8861;52.644;4.734;2023-04-24T15:12:36;13.20;99.90
17489;DHT22;8861;52.644;4.734;2023-04-24T15:15:03;12.80;99.90
17489;DHT22;8861;52.644;4.734;2023-04-24T15:17:30;12.50;99.90
17489;DHT22;8861;52.644;4.734;2023-04-24T15:19:59;12.70;99.90
17489;DHT22;8861;52.644;4.734;2023-04-24T15:22:27;12.90;99.90
17489;DHT22;8861;52.644;4.734;2023-04-24T15:24:54;13.60;99.90
17489;DHT22;8861;52.644;4.734;2023-04-24T15:27:21;14.60;99.90
17489;DHT22;8861;52.644;4.734;2023-04-24T15:29:48;14.40;99.90
17489;DHT22;8861;52.644;4.734;2023-04-24T15:32:15;14.30;99.90
17489;DHT22;8861;52.644;4.734;2023-04-24T15:34:42;14.50;99.90
17489;DHT22;8861;52.644;4.734;2023-04-24T15:37:11;14.90;99.90
17489;DHT22;8861;52.644;4.734;2023-04-24T15:39:38;15.80;99.90
17489;DHT22;8861;52.644;4.734;2023-04-24T15:42:05;17.00;99.90
17489;DHT22;8861;52.644;4.734;2023-04-24T15:44:32;18.10;99.90
17489;DHT22;8861;52.644;4.734;2023-04-24T15:47:00;18.40;99.90
17489;DHT22;8861;52.644;4.734;2023-04-24T15:49:27;17.90;99.90
17489;DHT22;8861;52.644;4.734;2023-04-24T15:51:54;17.30;99.90
17489;DHT22;8861;52.644;4.734;2023-04-24T15:54:22;16.60;99.90
17489;DHT22;8861;52.644;4.734;2023-04-24T15:56:50;15.80;99.90
17489;DHT22;8861;52.644;4.734;2023-04-24T15:59:17;14.90;99.90
17489;DHT22;8861;52.644;4.734;2023-04-24T16:01:44;14.20;99.90
17489;DHT22;8861;52.644;4.734;2023-04-24T16:04:11;13.80;99.90
17489;DHT22;8861;52.644;4.734;2023-04-24T16:06:38;13.40;99.90
17489;DHT22;8861;52.644;4.734;2023-04-24T16:09:05;13.10;99.90
17489;DHT22;8861;52.644;4.734;2023-04-24T16:11:34;12.90;99.90
17489;DHT22;8861;52.644;4.734;2023-04-24T16:14:04;13.00;99.90
17489;DHT22;8861;52.644;4.734;2023-04-24T16:16:31;13.00;99.90
17489;DHT22;8861;52.644;4.734;2023-04-24T16:18:58;12.90;99.90
17489;DHT22;8861;52.644;4.734;2023-04-24T16:21:25;12.60;99.90
17489;DHT22;8861;52.644;4.734;2023-04-24T16:23:52;12.10;99.90
17489;DHT22;8861;52.644;4.734;2023-04-24T16:26:19;11.60;99.90
17489;DHT22;8861;52.644;4.734;2023-04-24T16:28:48;11.10;99.90
17489;DHT22;8861;52.644;4.734;2023-04-24T16:31:15;10.70;99.90
17489;DHT22;8861;52.644;4.734;2023-04-24T16:33:42;10.40;99.90
17489;DHT22;8861;52.644;4.734;2023-04-24T16:36:09;10.20;99.90
17489;DHT22;8861;52.644;4.734;2023-04-24T16:38:37;10.00;99.90
17489;DHT22;8861;52.644;4.734;2023-04-24T16:41:04;9.90;99.90
17489;DHT22;8861;52.644;4.734;2023-04-24T16:43:31;9.60;99.90
17489;DHT22;8861;52.644;4.734;2023-04-24T16:46:00;9.40;99.90
17489;DHT22;8861;52.644;4.734;2023-04-24T16:48:27;9.30;99.90
17489;DHT22;8861;52.644;4.734;2023-04-24T16:50:53;9.20;99.90
17489;DHT22;8861;52.644;4.734;2023-04-24T16:53:21;9.10;99.90
17489;DHT22;8861;52.644;4.734;2023-04-24T16:55:47;9.10;99.90
17489;DHT22;8861;52.644;4.734;2023-04-24T16:58:14;9.00;99.90
17489;DHT22;8861;52.644;4.734;2023-04-24T17:00:41;8.90;99.90
17489;DHT22;8861;52.644;4.734;2023-04-24T17:03:10;8.80;99.90
17489;DHT22;8861;52.644;4.734;2023-04-24T17:05:39;8.80;99.90
17489;DHT22;8861;52.644;4.734;2023-04-24T17:08:06;8.80;99.90
17489;DHT22;8861;52.644;4.734;2023-04-24T17:10:34;8.80;99.90
17489;DHT22;8861;52.644;4.734;2023-04-24T17:13:00;9.00;99.90
17489;DHT22;8861;52.644;4.734;2023-04-24T17:15:27;9.00;99.90
17489;DHT22;8861;52.644;4.734;2023-04-24T17:17:55;8.90;99.90
17489;DHT22;8861;52.644;4.734;2023-04-24T17:20:24;8.90;99.90
17489;DHT22;8861;52.644;4.734;2023-04-24T17:22:51;8.90;99.90
17489;DHT22;8861;52.644;4.734;2023-04-24T17:25:18;8.90;99.90
17489;DHT22;8861;52.644;4.734;2023-04-24T17:27:45;8.80;99.90
17489;DHT22;8861;52.644;4.734;2023-04-24T17:30:13;8.80;99.90
17489;DHT22;8861;52.644;4.734;2023-04-24T17:32:42;8.80;99.90
17489;DHT22;8861;52.644;4.734;2023-04-24T17:35:09;8.80;99.90
17489;DHT22;8861;52.644;4.734;2023-04-24T17:37:38;8.80;99.90
17489;DHT22;8861;52.644;4.734;2023-04-24T17:40:06;8.80;99.90
17489;DHT22;8861;52.644;4.734;2023-04-24T17:42:34;8.80;99.90
17489;DHT22;8861;52.644;4.734;2023-04-24T17:45:06;8.80;99.90
17489;DHT22;8861;52.644;4.734;2023-04-24T17:47:34;8.80;99.90
17489;DHT22;8861;52.644;4.734;2023-04-24T17:50:01;8.90;99.90
17489;DHT22;8861;52.644;4.734;2023-04-24T17:52:28;9.10;99.90
17489;DHT22;8861;52.644;4.734;2023-04-24T17:54:56;9.30;99.90
17489;DHT22;8861;52.644;4.734;2023-04-24T17:57:23;9.50;99.90
17489;DHT22;8861;52.644;4.734;2023-04-24T17:59:50;9.60;99.90
17489;DHT22;8861;52.644;4.734;2023-04-24T18:02:17;9.60;99.90
17489;DHT22;8861;52.644;4.734;2023-04-24T18:04:44;9.60;99.90
17489;DHT22;8861;52.644;4.734;2023-04-24T18:07:11;9.60;99.90
17489;DHT22;8861;52.644;4.734;2023-04-24T18:09:38;9.40;99.90
17489;DHT22;8861;52.644;4.734;2023-04-24T18:12:07;9.40;99.90
17489;DHT22;8861;52.644;4.734;2023-04-24T18:14:35;9.30;99.90
17489;DHT22;8861;52.644;4.734;2023-04-24T18:17:01;9.20;99.90
17489;DHT22;8861;52.644;4.734;2023-04-24T18:19:28;9.20;99.90
17489;DHT22;8861;52.644;4.734;2023-04-24T18:21:55;9.20;99.90
17489;DHT22;8861;52.644;4.734;2023-04-24T18:24:24;9.20;99.90
17489;DHT22;8861;52.644;4.734;2023-04-24T18:26:51;9.20;99.90
17489;DHT22;8861;52.644;4.734;2023-04-24T18:29:19;9.20;99.90
17489;DHT22;8861;52.644;4.734;2023-04-24T18:31:47;9.10;99.90
17489;DHT22;8861;52.644;4.734;2023-04-24T18:34:14;9.10;99.90
17489;DHT22;8861;52.644;4.734;2023-04-24T18:36:41;8.90;99.90
17489;DHT22;8861;52.644;4.734;2023-04-24T18:39:08;8.80;99.90
17489;DHT22;8861;52.644;4.734;2023-04-24T18:41:35;8.60;99.90
17489;DHT22;8861;52.644;4.734;2023-04-24T18:44:02;8.60;99.90
17489;DHT22;8861;52.644;4.734;2023-04-24T18:46:30;8.50;99.90
17489;DHT22;8861;52.644;4.734;2023-04-24T18:49:02;8.40;99.90
17489;DHT22;8861;52.644;4.734;2023-04-24T18:51:29;8.30;99.90
17489;DHT22;8861;52.644;4.734;2023-04-24T18:53:56;8.40;99.90
17489;DHT22;8861;52.644;4.734;2023-04-24T18:56:25;8.40;99.90
17489;DHT22;8861;52.644;4.734;2023-04-24T18:58:52;8.40;99.90
17489;DHT22;8861;52.644;4.734;2023-04-24T19:01:20;8.30;99.90
17489;DHT22;8861;52.644;4.734;2023-04-24T19:03:49;8.30;99.90
17489;DHT22;8861;52.644;4.734;2023-04-24T19:06:16;8.30;99.90
17489;DHT22;8861;52.644;4.734;2023-04-24T19:08:43;8.30;99.90
17489;DHT22;8861;52.644;4.734;2023-04-24T19:11:10;8.30;99.90
17489;DHT22;8861;52.644;4.734;2023-04-24T19:13:37;8.20;99.90
17489;DHT22;8861;52.644;4.734;2023-04-24T19:16:04;8.20;99.90
17489;DHT22;8861;52.644;4.734;2023-04-24T19:18:30;8.10;99.90
17489;DHT22;8861;52.644;4.734;2023-04-24T19:20:59;8.10;99.90
17489;DHT22;8861;52.644;4.734;2023-04-24T19:23:26;8.10;99.90
17489;DHT22;8861;52.644;4.734;2023-04-24T19:25:53;8.10;99.90
17489;DHT22;8861;52.644;4.734;2023-04-24T19:28:20;8.10;99.90
17489;DHT22;8861;52.644;4.734;2023-04-24T19:30:46;8.10;99.90
17489;DHT22;8861;52.644;4.734;2023-04-24T19:33:13;8.10;99.90
17489;DHT22;8861;52.644;4.734;2023-04-24T19:35:41;8.00;99.90
17489;DHT22;8861;52.644;4.734;2023-04-24T19:38:10;8.00;99.90
17489;DHT22;8861;52.644;4.734;2023-04-24T19:40:37;8.00;99.90
17489;DHT22;8861;52.644;4.734;2023-04-24T19:43:04;8.00;99.90
17489;DHT22;8861;52.644;4.734;2023-04-24T19:45:31;8.00;99.90
17489;DHT22;8861;52.644;4.734;2023-04-24T19:47:57;8.00;99.90
17489;DHT22;8861;52.644;4.734;2023-04-24T19:50:25;7.90;99.90
17489;DHT22;8861;52.644;4.734;2023-04-24T19:52:52;7.90;99.90
17489;DHT22;8861;52.644;4.734;2023-04-24T19:55:20;7.80;99.90
17489;DHT22;8861;52.644;4.734;2023-04-24T19:57:47;7.80;99.90
17489;DHT22;8861;52.644;4.734;2023-04-24T20:00:15;7.80;99.90
17489;DHT22;8861;52.644;4.734;2023-04-24T20:02:42;7.80;99.90
17489;DHT22;8861;52.644;4.734;2023-04-24T20:05:09;7.70;99.90
17489;DHT22;8861;52.644;4.734;2023-04-24T20:07:36;7.60;99.90
17489;DHT22;8861;52.644;4.734;2023-04-24T20:10:03;7.60;99.90
17489;DHT22;8861;52.644;4.734;2023-04-24T20:12:32;7.60;99.90
17489;DHT22;8861;52.644;4.734;2023-04-24T20:15:00;7.60;99.90
17489;DHT22;8861;52.644;4.734;2023-04-24T20:17:27;7.60;99.90
17489;DHT22;8861;52.644;4.734;2023-04-24T20:19:54;7.60;99.90
17489;DHT22;8861;52.644;4.734;2023-04-24T20:22:21;7.60;99.90
17489;DHT22;8861;52.644;4.734;2023-04-24T20:24:48;7.60;99.90
17489;DHT22;8861;52.644;4.734;2023-04-24T20:27:16;7.60;99.90
17489;DHT22;8861;52.644;4.734;2023-04-24T20:29:47;7.60;99.90
17489;DHT22;8861;52.644;4.734;2023-04-24T20:32:13;7.70;99.90
17489;DHT22;8861;52.644;4.734;2023-04-24T20:34:40;7.70;99.90
17489;DHT22;8861;52.644;4.734;2023-04-24T20:37:07;7.70;99.90
17489;DHT22;8861;52.644;4.734;2023-04-24T20:39:34;7.70;99.90
17489;DHT22;8861;52.644;4.734;2023-04-24T20:42:01;7.70;99.90
17489;DHT22;8861;52.644;4.734;2023-04-24T20:44:28;7.70;99.90
17489;DHT22;8861;52.644;4.734;2023-04-24T20:46:56;7.70;99.90
17489;DHT22;8861;52.644;4.734;2023-04-24T20:49:23;7.60;99.90
17489;DHT22;8861;52.644;4.734;2023-04-24T20:51:50;7.70;99.90
17489;DHT22;8861;52.644;4.734;2023-04-24T20:54:19;7.60;99.90
17489;DHT22;8861;52.644;4.734;2023-04-24T20:56:46;7.70;99.90
17489;DHT22;8861;52.644;4.734;2023-04-24T20:59:13;7.70;99.90
17489;DHT22;8861;52.644;4.734;2023-04-24T21:01:40;7.60;99.90
17489;DHT22;8861;52.644;4.734;2023-04-24T21:04:10;7.70;99.90
17489;DHT22;8861;52.644;4.734;2023-04-24T21:06:37;7.70;99.90
17489;DHT22;8861;52.644;4.734;2023-04-24T21:09:04;7.70;99.90
17489;DHT22;8861;52.644;4.734;2023-04-24T21:11:30;7.70;99.90
17489;DHT22;8861;52.644;4.734;2023-04-24T21:13:58;7.70;99.90
17489;DHT22;8861;52.644;4.734;2023-04-24T21:16:25;7.70;99.90
17489;DHT22;8861;52.644;4.734;2023-04-24T21:18:52;7.70;99.90
17489;DHT22;8861;52.644;4.734;2023-04-24T21:21:20;7.70;99.90
17489;DHT22;8861;52.644;4.734;2023-04-24T21:23:49;7.70;99.90
17489;DHT22;8861;52.644;4.734;2023-04-24T21:26:16;7.60;99.90
17489;DHT22;8861;52.644;4.734;2023-04-24T21:28:44;7.70;99.90
17489;DHT22;8861;52.644;4.734;2023-04-24T21:31:10;7.70;99.90
17489;DHT22;8861;52.644;4.734;2023-04-24T21:33:37;7.60;99.90
17489;DHT22;8861;52.644;4.734;2023-04-24T21:36:05;7.60;99.90
17489;DHT22;8861;52.644;4.734;2023-04-24T21:38:33;7.60;99.90
17489;DHT22;8861;52.644;4.734;2023-04-24T21:41:01;7.60;99.90
17489;DHT22;8861;52.644;4.734;2023-04-24T21:43:28;7.60;99.90
17489;DHT22;8861;52.644;4.734;2023-04-24T21:45:54;7.60;99.90
17489;DHT22;8861;52.644;4.734;2023-04-24T21:48:22;7.60;99.90
17489;DHT22;8861;52.644;4.734;2023-04-24T21:50:49;7.60;99.90
17489;DHT22;8861;52.644;4.734;2023-04-24T21:53:16;7.60;99.90
17489;DHT22;8861;52.644;4.734;2023-04-24T21:55:44;7.60;99.90
17489;DHT22;8861;52.644;4.734;2023-04-24T21:58:11;7.50;99.90
17489;DHT22;8861;52.644;4.734;2023-04-24T22:00:38;7.50;99.90
17489;DHT22;8861;52.644;4.734;2023-04-24T22:03:05;7.50;99.90
17489;DHT22;8861;52.644;4.734;2023-04-24T22:05:32;7.50;99.90
17489;DHT22;8861;52.644;4.734;2023-04-24T22:07:59;7.50;99.90
17489;DHT22;8861;52.644;4.734;2023-04-24T22:10:26;7.60;99.90
17489;DHT22;8861;52.644;4.734;2023-04-24T22:12:55;7.60;99.90
17489;DHT22;8861;52.644;4.734;2023-04-24T22:15:21;7.60;99.90
17489;DHT22;8861;52.644;4.734;2023-04-24T22:17:48;7.60;99.90
17489;DHT22;8861;52.644;4.734;2023-04-24T22:20:17;7.60;99.90
17489;DHT22;8861;52.644;4.734;2023-04-24T22:22:44;7.60;99.90
17489;DHT22;8861;52.644;4.734;2023-04-24T22:25:12;7.60;99.90
17489;DHT22;8861;52.644;4.734;2023-04-24T22:27:39;7.60;99.90
17489;DHT22;8861;52.644;4.734;2023-04-24T22:30:09;7.50;99.90
17489;DHT22;8861;52.644;4.734;2023-04-24T22:32:36;7.40;99.90
17489;DHT22;8861;52.644;4.734;2023-04-24T22:35:03;7.30;99.90
17489;DHT22;8861;52.644;4.734;2023-04-24T22:37:30;7.20;99.90
17489;DHT22;8861;52.644;4.734;2023-04-24T22:39:57;7.10;99.90
17489;DHT22;8861;52.644;4.734;2023-04-24T22:42:25;7.00;99.90
17489;DHT22;8861;52.644;4.734;2023-04-24T22:44:53;7.00;99.90
17489;DHT22;8861;52.644;4.734;2023-04-24T22:47:21;7.00;99.90
17489;DHT22;8861;52.644;4.734;2023-04-24T22:49:48;7.00;99.90
17489;DHT22;8861;52.644;4.734;2023-04-24T22:52:18;7.00;99.90
17489;DHT22;8861;52.644;4.734;2023-04-24T22:54:45;7.10;99.90
17489;DHT22;8861;52.644;4.734;2023-04-24T22:57:12;7.10;99.90
17489;DHT22;8861;52.644;4.734;2023-04-24T22:59:39;7.20;99.90
17489;DHT22;8861;52.644;4.734;2023-04-24T23:02:07;7.20;99.90
17489;DHT22;8861;52.644;4.734;2023-04-24T23:04:35;7.20;99.90
17489;DHT22;8861;52.644;4.734;2023-04-24T23:07:02;7.20;99.90
17489;DHT22;8861;52.644;4.734;2023-04-24T23:09:29;7.20;99.90
17489;DHT22;8861;52.644;4.734;2023-04-24T23:11:56;7.20;99.90
17489;DHT22;8861;52.644;4.734;2023-04-24T23:14:23;7.10;99.90
17489;DHT22;8861;52.644;4.734;2023-04-24T23:16:50;7.10;99.90
17489;DHT22;8861;52.644;4.734;2023-04-24T23:19:17;7.10;99.90
17489;DHT22;8861;52.644;4.734;2023-04-24T23:21:45;7.10;99.90
17489;DHT22;8861;52.644;4.734;2023-04-24T23:24:12;7.10;99.90
17489;DHT22;8861;52.644;4.734;2023-04-24T23:26:39;7.10;99.90
17489;DHT22;8861;52.644;4.734;2023-04-24T23:29:06;7.10;99.90
17489;DHT22;8861;52.644;4.734;2023-04-24T23:31:33;7.10;99.90
17489;DHT22;8861;52.644;4.734;2023-04-24T23:34:00;7.10;99.90
17489;DHT22;8861;52.644;4.734;2023-04-24T23:36:27;7.10;99.90
17489;DHT22;8861;52.644;4.734;2023-04-24T23:38:56;7.10;99.90
17489;DHT22;8861;52.644;4.734;2023-04-24T23:41:23;7.10;99.90
17489;DHT22;8861;52.644;4.734;2023-04-24T23:43:49;7.00;99.90
17489;DHT22;8861;52.644;4.734;2023-04-24T23:46:16;7.00;99.90
17489;DHT22;8861;52.644;4.734;2023-04-24T23:48:43;6.90;99.90
17489;DHT22;8861;52.644;4.734;2023-04-24T23:51:10;6.90;99.90